sensor_id;sensor_type;location;lat;lon;timestamp;P1;durP1;ratioP1;P2;durP2;ratioP2
28009;SDS011;15334;49.494;8.410;2023-02-15T00:01:41;129.85;;;26.80;;
28009;SDS011;15334;49.494;8.410;2023-02-15T00:04:11;135.00;;;28.63;;
28009;SDS011;15334;49.494;8.410;2023-02-15T00:06:40;121.78;;;26.90;;
28009;SDS011;15334;49.494;8.410;2023-02-15T00:09:09;130.02;;;27.05;;
28009;SDS011;15334;49.494;8.410;2023-02-15T00:11:39;125.80;;;26.70;;
28009;SDS011;15334;49.494;8.410;2023-02-15T00:14:09;115.03;;;25.48;;
28009;SDS011;15334;49.494;8.410;2023-02-15T00:16:39;105.18;;;25.90;;
28009;SDS011;15334;49.494;8.410;2023-02-15T00:19:10;103.22;;;24.50;;
28009;SDS011;15334;49.494;8.410;2023-02-15T00:21:39;117.77;;;24.60;;
28009;SDS011;15334;49.494;8.410;2023-02-15T00:24:11;101.47;;;26.27;;
28009;SDS011;15334;49.494;8.410;2023-02-15T00:26:45;108.70;;;25.85;;
28009;SDS011;15334;49.494;8.410;2023-02-15T00:29:14;120.10;;;27.45;;
28009;SDS011;15334;49.494;8.410;2023-02-15T00:31:44;108.93;;;25.35;;
28009;SDS011;15334;49.494;8.410;2023-02-15T00:34:13;119.82;;;24.00;;
28009;SDS011;15334;49.494;8.410;2023-02-15T00:36:43;129.18;;;26.40;;
28009;SDS011;15334;49.494;8.410;2023-02-15T00:39:11;90.43;;;22.50;;
28009;SDS011;15334;49.494;8.410;2023-02-15T00:41:40;94.22;;;24.15;;
28009;SDS011;15334;49.494;8.410;2023-02-15T00:44:10;136.18;;;25.90;;
28009;SDS011;15334;49.494;8.410;2023-02-15T00:46:38;159.27;;;27.48;;
28009;SDS011;15334;49.494;8.410;2023-02-15T00:49:06;111.25;;;26.23;;
28009;SDS011;15334;49.494;8.410;2023-02-15T00:51:34;104.78;;;25.80;;
28009;SDS011;15334;49.494;8.410;2023-02-15T00:54:03;101.10;;;24.75;;
28009;SDS011;15334;49.494;8.410;2023-02-15T00:56:31;112.13;;;25.23;;
28009;SDS011;15334;49.494;8.410;2023-02-15T00:58:59;101.25;;;26.10;;
28009;SDS011;15334;49.494;8.410;2023-02-15T01:01:29;108.28;;;25.50;;
28009;SDS011;15334;49.494;8.410;2023-02-15T01:03:57;100.22;;;25.60;;
28009;SDS011;15334;49.494;8.410;2023-02-15T01:06:25;103.20;;;25.17;;
28009;SDS011;15334;49.494;8.410;2023-02-15T01:08:53;88.72;;;24.02;;
28009;SDS011;15334;49.494;8.410;2023-02-15T01:11:21;157.65;;;28.20;;
28009;SDS011;15334;49.494;8.410;2023-02-15T01:13:51;91.47;;;25.00;;
28009;SDS011;15334;49.494;8.410;2023-02-15T01:16:21;95.63;;;24.52;;
28009;SDS011;15334;49.494;8.410;2023-02-15T01:18:51;92.72;;;23.50;;
28009;SDS011;15334;49.494;8.410;2023-02-15T01:21:21;94.47;;;24.77;;
28009;SDS011;15334;49.494;8.410;2023-02-15T01:23:50;103.50;;;24.52;;
28009;SDS011;15334;49.494;8.410;2023-02-15T01:26:18;90.28;;;23.85;;
28009;SDS011;15334;49.494;8.410;2023-02-15T01:28:47;81.80;;;23.33;;
28009;SDS011;15334;49.494;8.410;2023-02-15T01:31:16;107.57;;;26.52;;
28009;SDS011;15334;49.494;8.410;2023-02-15T01:33:47;101.38;;;25.15;;
28009;SDS011;15334;49.494;8.410;2023-02-15T01:36:17;106.25;;;24.80;;
28009;SDS011;15334;49.494;8.410;2023-02-15T01:38:47;100.07;;;23.45;;
28009;SDS011;15334;49.494;8.410;2023-02-15T01:41:15;105.28;;;25.00;;
28009;SDS011;15334;49.494;8.410;2023-02-15T01:43:51;137.88;;;26.13;;
28009;SDS011;15334;49.494;8.410;2023-02-15T01:46:22;135.32;;;25.90;;
28009;SDS011;15334;49.494;8.410;2023-02-15T01:48:55;113.57;;;25.52;;
28009;SDS011;15334;49.494;8.410;2023-02-15T01:51:30;100.47;;;26.23;;
28009;SDS011;15334;49.494;8.410;2023-02-15T01:54:03;102.53;;;24.88;;
28009;SDS011;15334;49.494;8.410;2023-02-15T01:56:37;98.95;;;23.33;;
28009;SDS011;15334;49.494;8.410;2023-02-15T01:59:08;142.85;;;24.55;;
28009;SDS011;15334;49.494;8.410;2023-02-15T02:01:39;112.85;;;25.08;;
28009;SDS011;15334;49.494;8.410;2023-02-15T02:04:09;116.55;;;26.70;;
28009;SDS011;15334;49.494;8.410;2023-02-15T02:06:43;147.25;;;29.17;;
28009;SDS011;15334;49.494;8.410;2023-02-15T02:09:13;135.88;;;26.75;;
28009;SDS011;15334;49.494;8.410;2023-02-15T02:11:42;110.40;;;27.02;;
28009;SDS011;15334;49.494;8.410;2023-02-15T02:14:12;111.00;;;25.60;;
28009;SDS011;15334;49.494;8.410;2023-02-15T02:16:42;102.18;;;24.70;;
28009;SDS011;15334;49.494;8.410;2023-02-15T02:19:22;133.50;;;27.85;;
28009;SDS011;15334;49.494;8.410;2023-02-15T02:22:22;116.10;;;25.95;;
28009;SDS011;15334;49.494;8.410;2023-02-15T02:28:35;119.45;;;27.55;;
28009;SDS011;15334;49.494;8.410;2023-02-15T02:31:31;146.52;;;27.90;;
28009;SDS011;15334;49.494;8.410;2023-02-15T02:34:13;117.38;;;26.10;;
28009;SDS011;15334;49.494;8.410;2023-02-15T02:36:48;120.80;;;24.35;;
28009;SDS011;15334;49.494;8.410;2023-02-15T02:39:22;113.68;;;25.10;;
28009;SDS011;15334;49.494;8.410;2023-02-15T02:41:57;107.40;;;25.67;;
28009;SDS011;15334;49.494;8.410;2023-02-15T02:44:31;135.43;;;27.73;;
28009;SDS011;15334;49.494;8.410;2023-02-15T02:47:09;103.28;;;23.88;;
28009;SDS011;15334;49.494;8.410;2023-02-15T02:49:43;88.70;;;23.13;;
28009;SDS011;15334;49.494;8.410;2023-02-15T02:52:37;76.25;;;22.48;;
28009;SDS011;15334;49.494;8.410;2023-02-15T02:55:16;75.95;;;21.27;;
28009;SDS011;15334;49.494;8.410;2023-02-15T02:57:52;62.40;;;20.90;;
28009;SDS011;15334;49.494;8.410;2023-02-15T03:00:35;71.57;;;21.90;;
28009;SDS011;15334;49.494;8.410;2023-02-15T03:03:14;73.32;;;20.45;;
28009;SDS011;15334;49.494;8.410;2023-02-15T03:05:56;59.65;;;19.40;;
28009;SDS011;15334;49.494;8.410;2023-02-15T03:08:31;69.75;;;19.88;;
28009;SDS011;15334;49.494;8.410;2023-02-15T03:11:06;84.13;;;20.30;;
28009;SDS011;15334;49.494;8.410;2023-02-15T03:13:44;69.63;;;20.85;;
28009;SDS011;15334;49.494;8.410;2023-02-15T03:16:20;75.82;;;22.90;;
28009;SDS011;15334;49.494;8.410;2023-02-15T03:19:12;79.80;;;21.50;;
28009;SDS011;15334;49.494;8.410;2023-02-15T03:21:59;70.05;;;20.15;;
28009;SDS011;15334;49.494;8.410;2023-02-15T03:24:46;63.97;;;19.23;;
28009;SDS011;15334;49.494;8.410;2023-02-15T03:27:24;68.75;;;19.70;;
28009;SDS011;15334;49.494;8.410;2023-02-15T03:30:04;59.85;;;18.95;;
28009;SDS011;15334;49.494;8.410;2023-02-15T03:32:45;58.60;;;18.25;;
28009;SDS011;15334;49.494;8.410;2023-02-15T03:35:28;60.65;;;18.52;;
28009;SDS011;15334;49.494;8.410;2023-02-15T03:38:16;58.95;;;19.42;;
28009;SDS011;15334;49.494;8.410;2023-02-15T03:40:52;61.58;;;18.10;;
28009;SDS011;15334;49.494;8.410;2023-02-15T03:43:59;59.53;;;19.63;;
28009;SDS011;15334;49.494;8.410;2023-02-15T03:46:40;60.90;;;19.83;;
28009;SDS011;15334;49.494;8.410;2023-02-15T03:49:22;47.83;;;18.25;;
28009;SDS011;15334;49.494;8.410;2023-02-15T03:52:08;61.33;;;17.85;;
28009;SDS011;15334;49.494;8.410;2023-02-15T03:54:41;66.78;;;18.15;;
28009;SDS011;15334;49.494;8.410;2023-02-15T03:57:17;54.92;;;18.55;;
28009;SDS011;15334;49.494;8.410;2023-02-15T04:00:11;58.78;;;19.13;;
28009;SDS011;15334;49.494;8.410;2023-02-15T04:03:04;64.18;;;21.35;;
28009;SDS011;15334;49.494;8.410;2023-02-15T04:05:48;53.70;;;19.55;;
28009;SDS011;15334;49.494;8.410;2023-02-15T04:08:22;65.20;;;19.83;;
28009;SDS011;15334;49.494;8.410;2023-02-15T04:11:17;60.10;;;18.45;;
28009;SDS011;15334;49.494;8.410;2023-02-15T04:13:48;65.85;;;19.90;;
28009;SDS011;15334;49.494;8.410;2023-02-15T04:16:23;52.38;;;19.13;;
28009;SDS011;15334;49.494;8.410;2023-02-15T04:18:59;50.90;;;18.73;;
28009;SDS011;15334;49.494;8.410;2023-02-15T04:21:46;52.20;;;16.38;;
28009;SDS011;15334;49.494;8.410;2023-02-15T04:24:40;54.80;;;19.27;;
28009;SDS011;15334;49.494;8.410;2023-02-15T04:27:27;52.42;;;17.83;;
28009;SDS011;15334;49.494;8.410;2023-02-15T04:30:01;56.55;;;19.63;;
28009;SDS011;15334;49.494;8.410;2023-02-15T04:32:35;59.78;;;19.42;;
28009;SDS011;15334;49.494;8.410;2023-02-15T04:35:07;49.35;;;18.02;;
28009;SDS011;15334;49.494;8.410;2023-02-15T04:37:37;61.72;;;19.42;;
28009;SDS011;15334;49.494;8.410;2023-02-15T04:40:09;54.35;;;18.48;;
28009;SDS011;15334;49.494;8.410;2023-02-15T04:42:45;65.55;;;19.40;;
28009;SDS011;15334;49.494;8.410;2023-02-15T04:45:17;48.50;;;17.98;;
28009;SDS011;15334;49.494;8.410;2023-02-15T04:50:38;50.42;;;17.10;;
28009;SDS011;15334;49.494;8.410;2023-02-15T04:53:08;49.92;;;18.20;;
28009;SDS011;15334;49.494;8.410;2023-02-15T04:55:37;54.08;;;18.15;;
28009;SDS011;15334;49.494;8.410;2023-02-15T04:58:12;49.38;;;16.50;;
28009;SDS011;15334;49.494;8.410;2023-02-15T05:00:41;55.40;;;17.00;;
28009;SDS011;15334;49.494;8.410;2023-02-15T05:03:12;52.88;;;18.73;;
28009;SDS011;15334;49.494;8.410;2023-02-15T05:05:48;55.50;;;18.17;;
28009;SDS011;15334;49.494;8.410;2023-02-15T05:08:26;53.45;;;17.30;;
28009;SDS011;15334;49.494;8.410;2023-02-15T05:10:54;41.30;;;13.20;;
28009;SDS011;15334;49.494;8.410;2023-02-15T05:13:27;47.58;;;17.10;;
28009;SDS011;15334;49.494;8.410;2023-02-15T05:16:00;49.78;;;17.65;;
28009;SDS011;15334;49.494;8.410;2023-02-15T05:18:31;52.05;;;19.13;;
28009;SDS011;15334;49.494;8.410;2023-02-15T05:21:02;53.17;;;19.35;;
28009;SDS011;15334;49.494;8.410;2023-02-15T05:23:40;56.22;;;16.85;;
28009;SDS011;15334;49.494;8.410;2023-02-15T05:26:16;57.13;;;18.13;;
28009;SDS011;15334;49.494;8.410;2023-02-15T05:29:07;50.72;;;16.80;;
28009;SDS011;15334;49.494;8.410;2023-02-15T05:31:42;58.20;;;19.05;;
28009;SDS011;15334;49.494;8.410;2023-02-15T05:34:24;53.20;;;18.33;;
28009;SDS011;15334;49.494;8.410;2023-02-15T05:36:53;47.38;;;17.02;;
28009;SDS011;15334;49.494;8.410;2023-02-15T05:39:26;48.03;;;17.42;;
28009;SDS011;15334;49.494;8.410;2023-02-15T05:41:57;47.88;;;17.63;;
28009;SDS011;15334;49.494;8.410;2023-02-15T05:44:28;53.47;;;18.80;;
28009;SDS011;15334;49.494;8.410;2023-02-15T05:46:56;47.63;;;17.23;;
28009;SDS011;15334;49.494;8.410;2023-02-15T05:49:31;48.55;;;17.35;;
28009;SDS011;15334;49.494;8.410;2023-02-15T05:52:08;56.63;;;18.50;;
28009;SDS011;15334;49.494;8.410;2023-02-15T05:57:11;49.40;;;18.00;;
28009;SDS011;15334;49.494;8.410;2023-02-15T05:59:43;46.15;;;17.10;;
28009;SDS011;15334;49.494;8.410;2023-02-15T06:02:16;47.50;;;17.48;;
28009;SDS011;15334;49.494;8.410;2023-02-15T06:04:44;55.10;;;17.38;;
28009;SDS011;15334;49.494;8.410;2023-02-15T06:07:12;52.05;;;19.90;;
28009;SDS011;15334;49.494;8.410;2023-02-15T06:09:40;54.75;;;18.92;;
28009;SDS011;15334;49.494;8.410;2023-02-15T06:12:09;55.75;;;19.02;;
28009;SDS011;15334;49.494;8.410;2023-02-15T06:14:37;54.13;;;17.92;;
28009;SDS011;15334;49.494;8.410;2023-02-15T06:17:06;49.40;;;17.52;;
28009;SDS011;15334;49.494;8.410;2023-02-15T06:19:34;52.25;;;19.60;;
28009;SDS011;15334;49.494;8.410;2023-02-15T06:22:05;49.17;;;19.58;;
28009;SDS011;15334;49.494;8.410;2023-02-15T06:24:33;55.30;;;17.70;;
28009;SDS011;15334;49.494;8.410;2023-02-15T06:27:01;54.40;;;18.80;;
28009;SDS011;15334;49.494;8.410;2023-02-15T06:29:30;56.33;;;18.75;;
28009;SDS011;15334;49.494;8.410;2023-02-15T06:31:58;60.08;;;18.55;;
28009;SDS011;15334;49.494;8.410;2023-02-15T06:34:27;49.38;;;17.95;;
28009;SDS011;15334;49.494;8.410;2023-02-15T06:36:57;53.63;;;18.70;;
28009;SDS011;15334;49.494;8.410;2023-02-15T06:39:25;50.47;;;16.80;;
28009;SDS011;15334;49.494;8.410;2023-02-15T06:41:53;51.35;;;17.92;;
28009;SDS011;15334;49.494;8.410;2023-02-15T06:44:24;54.33;;;18.77;;
28009;SDS011;15334;49.494;8.410;2023-02-15T06:46:55;57.95;;;19.27;;
28009;SDS011;15334;49.494;8.410;2023-02-15T06:49:23;50.85;;;18.17;;
28009;SDS011;15334;49.494;8.410;2023-02-15T06:51:55;49.92;;;17.60;;
28009;SDS011;15334;49.494;8.410;2023-02-15T06:54:23;59.72;;;17.65;;
28009;SDS011;15334;49.494;8.410;2023-02-15T06:56:51;51.05;;;17.00;;
28009;SDS011;15334;49.494;8.410;2023-02-15T06:59:19;54.47;;;18.23;;
28009;SDS011;15334;49.494;8.410;2023-02-15T07:01:47;63.53;;;19.90;;
28009;SDS011;15334;49.494;8.410;2023-02-15T07:04:16;56.00;;;18.83;;
28009;SDS011;15334;49.494;8.410;2023-02-15T07:06:44;52.38;;;18.63;;
28009;SDS011;15334;49.494;8.410;2023-02-15T07:09:13;54.85;;;18.20;;
28009;SDS011;15334;49.494;8.410;2023-02-15T07:11:42;55.58;;;20.05;;
28009;SDS011;15334;49.494;8.410;2023-02-15T07:14:28;50.75;;;19.13;;
28009;SDS011;15334;49.494;8.410;2023-02-15T07:16:56;59.25;;;20.33;;
28009;SDS011;15334;49.494;8.410;2023-02-15T07:19:27;49.08;;;20.60;;
28009;SDS011;15334;49.494;8.410;2023-02-15T07:21:55;55.40;;;20.38;;
28009;SDS011;15334;49.494;8.410;2023-02-15T07:24:24;60.90;;;19.33;;
28009;SDS011;15334;49.494;8.410;2023-02-15T07:26:52;52.72;;;17.58;;
28009;SDS011;15334;49.494;8.410;2023-02-15T07:29:22;49.78;;;19.13;;
28009;SDS011;15334;49.494;8.410;2023-02-15T07:31:50;47.20;;;19.15;;
28009;SDS011;15334;49.494;8.410;2023-02-15T07:34:21;56.55;;;18.67;;
28009;SDS011;15334;49.494;8.410;2023-02-15T07:36:50;47.90;;;19.08;;
28009;SDS011;15334;49.494;8.410;2023-02-15T07:39:19;53.53;;;18.92;;
28009;SDS011;15334;49.494;8.410;2023-02-15T07:41:51;55.78;;;17.63;;
28009;SDS011;15334;49.494;8.410;2023-02-15T07:44:19;43.70;;;17.30;;
28009;SDS011;15334;49.494;8.410;2023-02-15T07:46:47;47.33;;;17.08;;
28009;SDS011;15334;49.494;8.410;2023-02-15T07:49:15;40.15;;;16.02;;
28009;SDS011;15334;49.494;8.410;2023-02-15T07:51:43;46.22;;;16.08;;
28009;SDS011;15334;49.494;8.410;2023-02-15T07:54:12;49.03;;;17.42;;
28009;SDS011;15334;49.494;8.410;2023-02-15T07:56:40;46.33;;;16.63;;
28009;SDS011;15334;49.494;8.410;2023-02-15T07:59:09;56.90;;;16.60;;
28009;SDS011;15334;49.494;8.410;2023-02-15T08:01:39;43.30;;;16.73;;
28009;SDS011;15334;49.494;8.410;2023-02-15T08:04:08;47.90;;;17.30;;
28009;SDS011;15334;49.494;8.410;2023-02-15T08:06:38;52.83;;;18.15;;
28009;SDS011;15334;49.494;8.410;2023-02-15T08:09:07;47.85;;;16.70;;
28009;SDS011;15334;49.494;8.410;2023-02-15T08:11:37;42.63;;;15.93;;
28009;SDS011;15334;49.494;8.410;2023-02-15T08:14:06;44.35;;;16.35;;
28009;SDS011;15334;49.494;8.410;2023-02-15T08:16:37;52.83;;;17.80;;
28009;SDS011;15334;49.494;8.410;2023-02-15T08:19:07;60.65;;;20.27;;
28009;SDS011;15334;49.494;8.410;2023-02-15T08:21:37;48.45;;;17.58;;
28009;SDS011;15334;49.494;8.410;2023-02-15T08:24:07;46.92;;;17.90;;
28009;SDS011;15334;49.494;8.410;2023-02-15T08:26:37;54.55;;;17.45;;
28009;SDS011;15334;49.494;8.410;2023-02-15T08:29:07;47.53;;;17.08;;
28009;SDS011;15334;49.494;8.410;2023-02-15T08:31:39;44.35;;;17.27;;
28009;SDS011;15334;49.494;8.410;2023-02-15T08:34:08;53.03;;;15.77;;
28009;SDS011;15334;49.494;8.410;2023-02-15T08:36:37;50.50;;;18.30;;
28009;SDS011;15334;49.494;8.410;2023-02-15T08:39:07;51.97;;;18.08;;
28009;SDS011;15334;49.494;8.410;2023-02-15T08:41:36;52.03;;;18.38;;
28009;SDS011;15334;49.494;8.410;2023-02-15T08:44:07;50.00;;;17.48;;
28009;SDS011;15334;49.494;8.410;2023-02-15T08:46:37;56.33;;;17.77;;
28009;SDS011;15334;49.494;8.410;2023-02-15T08:49:11;54.63;;;18.13;;
28009;SDS011;15334;49.494;8.410;2023-02-15T08:51:41;50.30;;;18.45;;
28009;SDS011;15334;49.494;8.410;2023-02-15T08:54:11;51.28;;;17.48;;
28009;SDS011;15334;49.494;8.410;2023-02-15T08:56:40;50.03;;;17.77;;
28009;SDS011;15334;49.494;8.410;2023-02-15T08:59:12;43.38;;;15.82;;
28009;SDS011;15334;49.494;8.410;2023-02-15T09:01:41;48.05;;;17.00;;
28009;SDS011;15334;49.494;8.410;2023-02-15T09:04:11;36.35;;;15.75;;
28009;SDS011;15334;49.494;8.410;2023-02-15T09:06:42;50.10;;;17.17;;
28009;SDS011;15334;49.494;8.410;2023-02-15T09:09:13;41.38;;;16.10;;
28009;SDS011;15334;49.494;8.410;2023-02-15T09:11:43;49.92;;;18.67;;
28009;SDS011;15334;49.494;8.410;2023-02-15T09:14:13;48.13;;;16.95;;
28009;SDS011;15334;49.494;8.410;2023-02-15T09:16:43;47.33;;;16.52;;
28009;SDS011;15334;49.494;8.410;2023-02-15T09:19:16;41.30;;;16.77;;
28009;SDS011;15334;49.494;8.410;2023-02-15T09:21:45;43.53;;;15.95;;
28009;SDS011;15334;49.494;8.410;2023-02-15T09:24:14;48.08;;;16.73;;
28009;SDS011;15334;49.494;8.410;2023-02-15T09:26:44;50.40;;;17.58;;
28009;SDS011;15334;49.494;8.410;2023-02-15T09:29:14;45.30;;;17.25;;
28009;SDS011;15334;49.494;8.410;2023-02-15T09:31:43;42.65;;;17.02;;
28009;SDS011;15334;49.494;8.410;2023-02-15T09:34:13;51.70;;;17.08;;
28009;SDS011;15334;49.494;8.410;2023-02-15T09:36:44;48.10;;;16.77;;
28009;SDS011;15334;49.494;8.410;2023-02-15T09:39:13;48.33;;;16.63;;
28009;SDS011;15334;49.494;8.410;2023-02-15T09:41:56;47.85;;;16.50;;
28009;SDS011;15334;49.494;8.410;2023-02-15T09:44:56;44.97;;;17.38;;
28009;SDS011;15334;49.494;8.410;2023-02-15T09:47:38;45.30;;;16.95;;
28009;SDS011;15334;49.494;8.410;2023-02-15T09:50:28;46.90;;;16.15;;
28009;SDS011;15334;49.494;8.410;2023-02-15T09:53:16;44.90;;;15.77;;
28009;SDS011;15334;49.494;8.410;2023-02-15T09:56:09;43.97;;;15.68;;
28009;SDS011;15334;49.494;8.410;2023-02-15T09:58:44;44.00;;;16.52;;
28009;SDS011;15334;49.494;8.410;2023-02-15T10:01:20;47.08;;;17.23;;
28009;SDS011;15334;49.494;8.410;2023-02-15T10:04:08;48.33;;;17.30;;
28009;SDS011;15334;49.494;8.410;2023-02-15T10:06:57;48.58;;;17.42;;
28009;SDS011;15334;49.494;8.410;2023-02-15T10:09:42;53.03;;;17.92;;
28009;SDS011;15334;49.494;8.410;2023-02-15T10:15:21;41.15;;;15.77;;
28009;SDS011;15334;49.494;8.410;2023-02-15T10:18:15;54.65;;;19.42;;
28009;SDS011;15334;49.494;8.410;2023-02-15T10:20:55;43.42;;;17.15;;
28009;SDS011;15334;49.494;8.410;2023-02-15T10:23:36;47.50;;;19.42;;
28009;SDS011;15334;49.494;8.410;2023-02-15T10:26:20;46.47;;;16.88;;
28009;SDS011;15334;49.494;8.410;2023-02-15T10:28:50;45.53;;;17.50;;
28009;SDS011;15334;49.494;8.410;2023-02-15T10:31:22;54.30;;;17.83;;
28009;SDS011;15334;49.494;8.410;2023-02-15T10:40:06;52.78;;;17.98;;
28009;SDS011;15334;49.494;8.410;2023-02-15T10:42:45;55.38;;;19.23;;
28009;SDS011;15334;49.494;8.410;2023-02-15T10:45:28;62.13;;;21.42;;
28009;SDS011;15334;49.494;8.410;2023-02-15T10:48:10;58.00;;;20.38;;
28009;SDS011;15334;49.494;8.410;2023-02-15T10:50:51;61.38;;;21.20;;
28009;SDS011;15334;49.494;8.410;2023-02-15T10:56:16;52.17;;;21.20;;
28009;SDS011;15334;49.494;8.410;2023-02-15T11:02:35;60.42;;;20.23;;
28009;SDS011;15334;49.494;8.410;2023-02-15T11:05:42;61.03;;;22.55;;
28009;SDS011;15334;49.494;8.410;2023-02-15T11:08:25;58.60;;;20.55;;
28009;SDS011;15334;49.494;8.410;2023-02-15T11:11:04;54.97;;;20.48;;
28009;SDS011;15334;49.494;8.410;2023-02-15T11:13:54;56.17;;;18.75;;
28009;SDS011;15334;49.494;8.410;2023-02-15T11:16:36;56.72;;;19.17;;
28009;SDS011;15334;49.494;8.410;2023-02-15T11:19:16;50.83;;;19.60;;
28009;SDS011;15334;49.494;8.410;2023-02-15T11:21:55;57.38;;;19.13;;
28009;SDS011;15334;49.494;8.410;2023-02-15T11:24:33;52.55;;;18.40;;
28009;SDS011;15334;49.494;8.410;2023-02-15T11:27:15;43.95;;;18.83;;
28009;SDS011;15334;49.494;8.410;2023-02-15T11:29:57;53.45;;;20.30;;
28009;SDS011;15334;49.494;8.410;2023-02-15T11:32:32;51.33;;;18.65;;
28009;SDS011;15334;49.494;8.410;2023-02-15T11:35:17;56.40;;;20.38;;
28009;SDS011;15334;49.494;8.410;2023-02-15T11:37:57;53.63;;;19.55;;
28009;SDS011;15334;49.494;8.410;2023-02-15T11:40:32;56.50;;;19.95;;
28009;SDS011;15334;49.494;8.410;2023-02-15T11:43:04;59.88;;;20.88;;
28009;SDS011;15334;49.494;8.410;2023-02-15T11:45:41;55.67;;;20.70;;
28009;SDS011;15334;49.494;8.410;2023-02-15T11:48:14;55.03;;;20.90;;
28009;SDS011;15334;49.494;8.410;2023-02-15T11:50:45;55.80;;;19.65;;
28009;SDS011;15334;49.494;8.410;2023-02-15T11:53:17;58.83;;;22.45;;
28009;SDS011;15334;49.494;8.410;2023-02-15T11:55:59;40.25;;;14.93;;
28009;SDS011;15334;49.494;8.410;2023-02-15T11:58:32;49.05;;;19.95;;
28009;SDS011;15334;49.494;8.410;2023-02-15T12:01:12;59.35;;;21.52;;
28009;SDS011;15334;49.494;8.410;2023-02-15T12:03:46;51.20;;;20.08;;
28009;SDS011;15334;49.494;8.410;2023-02-15T12:06:18;55.97;;;19.75;;
28009;SDS011;15334;49.494;8.410;2023-02-15T12:08:57;52.00;;;20.02;;
28009;SDS011;15334;49.494;8.410;2023-02-15T12:11:32;54.78;;;20.35;;
28009;SDS011;15334;49.494;8.410;2023-02-15T12:14:04;46.50;;;18.85;;
28009;SDS011;15334;49.494;8.410;2023-02-15T12:16:34;59.35;;;21.35;;
28009;SDS011;15334;49.494;8.410;2023-02-15T12:19:20;53.03;;;21.08;;
28009;SDS011;15334;49.494;8.410;2023-02-15T12:21:57;57.75;;;21.27;;
28009;SDS011;15334;49.494;8.410;2023-02-15T12:24:27;60.63;;;21.35;;
28009;SDS011;15334;49.494;8.410;2023-02-15T12:27:01;56.28;;;21.67;;
28009;SDS011;15334;49.494;8.410;2023-02-15T12:29:34;67.33;;;22.60;;
28009;SDS011;15334;49.494;8.410;2023-02-15T12:32:08;57.08;;;22.25;;
28009;SDS011;15334;49.494;8.410;2023-02-15T12:34:44;60.70;;;21.25;;
28009;SDS011;15334;49.494;8.410;2023-02-15T12:37:19;56.05;;;21.30;;
28009;SDS011;15334;49.494;8.410;2023-02-15T12:39:51;64.50;;;22.73;;
28009;SDS011;15334;49.494;8.410;2023-02-15T12:42:24;56.70;;;23.92;;
28009;SDS011;15334;49.494;8.410;2023-02-15T12:44:58;62.67;;;23.88;;
28009;SDS011;15334;49.494;8.410;2023-02-15T12:47:28;68.00;;;23.45;;
28009;SDS011;15334;49.494;8.410;2023-02-15T12:50:05;58.38;;;22.58;;
28009;SDS011;15334;49.494;8.410;2023-02-15T12:52:45;66.90;;;23.50;;
28009;SDS011;15334;49.494;8.410;2023-02-15T12:55:19;63.13;;;23.35;;
28009;SDS011;15334;49.494;8.410;2023-02-15T12:58:04;55.70;;;22.90;;
28009;SDS011;15334;49.494;8.410;2023-02-15T13:00:33;63.72;;;23.58;;
28009;SDS011;15334;49.494;8.410;2023-02-15T13:03:02;60.55;;;23.83;;
28009;SDS011;15334;49.494;8.410;2023-02-15T13:05:32;56.50;;;22.13;;
28009;SDS011;15334;49.494;8.410;2023-02-15T13:08:11;42.53;;;16.15;;
28009;SDS011;15334;49.494;8.410;2023-02-15T13:10:52;59.97;;;22.87;;
28009;SDS011;15334;49.494;8.410;2023-02-15T13:13:22;59.03;;;20.60;;
28009;SDS011;15334;49.494;8.410;2023-02-15T13:15:53;52.35;;;21.73;;
28009;SDS011;15334;49.494;8.410;2023-02-15T13:18:28;60.55;;;22.27;;
28009;SDS011;15334;49.494;8.410;2023-02-15T13:21:00;65.05;;;23.48;;
28009;SDS011;15334;49.494;8.410;2023-02-15T13:23:38;62.28;;;22.65;;
28009;SDS011;15334;49.494;8.410;2023-02-15T13:26:11;59.67;;;24.25;;
28009;SDS011;15334;49.494;8.410;2023-02-15T13:28:46;66.93;;;24.27;;
28009;SDS011;15334;49.494;8.410;2023-02-15T13:31:17;60.65;;;23.10;;
28009;SDS011;15334;49.494;8.410;2023-02-15T13:33:48;60.28;;;22.75;;
28009;SDS011;15334;49.494;8.410;2023-02-15T13:36:29;65.80;;;26.25;;
28009;SDS011;15334;49.494;8.410;2023-02-15T13:39:11;62.17;;;23.10;;
28009;SDS011;15334;49.494;8.410;2023-02-15T13:41:50;57.65;;;22.23;;
28009;SDS011;15334;49.494;8.410;2023-02-15T13:44:28;62.72;;;23.38;;
28009;SDS011;15334;49.494;8.410;2023-02-15T13:47:25;53.58;;;21.33;;
28009;SDS011;15334;49.494;8.410;2023-02-15T13:53:07;59.42;;;23.65;;
28009;SDS011;15334;49.494;8.410;2023-02-15T13:55:49;61.60;;;22.70;;
28009;SDS011;15334;49.494;8.410;2023-02-15T13:58:23;63.13;;;24.38;;
28009;SDS011;15334;49.494;8.410;2023-02-15T14:01:05;55.55;;;22.50;;
28009;SDS011;15334;49.494;8.410;2023-02-15T14:03:47;63.00;;;23.90;;
28009;SDS011;15334;49.494;8.410;2023-02-15T14:06:32;58.70;;;23.90;;
28009;SDS011;15334;49.494;8.410;2023-02-15T14:09:15;64.15;;;23.10;;
28009;SDS011;15334;49.494;8.410;2023-02-15T14:11:56;67.28;;;24.48;;
28009;SDS011;15334;49.494;8.410;2023-02-15T14:14:37;54.40;;;21.58;;
28009;SDS011;15334;49.494;8.410;2023-02-15T14:17:19;61.70;;;23.35;;
28009;SDS011;15334;49.494;8.410;2023-02-15T14:19:52;60.92;;;23.10;;
28009;SDS011;15334;49.494;8.410;2023-02-15T14:22:26;58.50;;;23.98;;
28009;SDS011;15334;49.494;8.410;2023-02-15T14:25:12;62.45;;;23.65;;
28009;SDS011;15334;49.494;8.410;2023-02-15T14:27:53;61.45;;;22.80;;
28009;SDS011;15334;49.494;8.410;2023-02-15T14:30:29;62.03;;;23.60;;
28009;SDS011;15334;49.494;8.410;2023-02-15T14:33:01;59.17;;;22.65;;
28009;SDS011;15334;49.494;8.410;2023-02-15T14:35:33;63.63;;;22.90;;
28009;SDS011;15334;49.494;8.410;2023-02-15T14:38:04;63.40;;;23.88;;
28009;SDS011;15334;49.494;8.410;2023-02-15T14:40:42;66.10;;;23.42;;
28009;SDS011;15334;49.494;8.410;2023-02-15T14:43:32;68.05;;;25.42;;
28009;SDS011;15334;49.494;8.410;2023-02-15T14:46:15;57.63;;;23.25;;
28009;SDS011;15334;49.494;8.410;2023-02-15T14:48:49;62.00;;;24.77;;
28009;SDS011;15334;49.494;8.410;2023-02-15T14:57:27;64.20;;;22.08;;
28009;SDS011;15334;49.494;8.410;2023-02-15T15:03:17;65.63;;;24.25;;
28009;SDS011;15334;49.494;8.410;2023-02-15T15:05:50;58.65;;;22.33;;
28009;SDS011;15334;49.494;8.410;2023-02-15T15:08:25;64.77;;;24.43;;
28009;SDS011;15334;49.494;8.410;2023-02-15T15:14:09;61.05;;;24.40;;
28009;SDS011;15334;49.494;8.410;2023-02-15T15:17:00;59.00;;;22.85;;
28009;SDS011;15334;49.494;8.410;2023-02-15T15:22:40;61.97;;;25.67;;
28009;SDS011;15334;49.494;8.410;2023-02-15T15:28:24;76.75;;;24.00;;
28009;SDS011;15334;49.494;8.410;2023-02-15T15:31:29;62.80;;;24.40;;
28009;SDS011;15334;49.494;8.410;2023-02-15T15:43:59;68.17;;;24.17;;
28009;SDS011;15334;49.494;8.410;2023-02-15T15:49:54;62.95;;;24.30;;
28009;SDS011;15334;49.494;8.410;2023-02-15T15:52:24;62.58;;;21.88;;
28009;SDS011;15334;49.494;8.410;2023-02-15T15:54:55;68.93;;;26.52;;
28009;SDS011;15334;49.494;8.410;2023-02-15T15:57:30;63.92;;;25.90;;
28009;SDS011;15334;49.494;8.410;2023-02-15T16:00:03;70.72;;;25.10;;
28009;SDS011;15334;49.494;8.410;2023-02-15T16:02:33;71.55;;;26.17;;